Time;durP1;ratioP1;P1;durP2;ratioP2;P2;SDS_P1;SDS_P2;PMS_P1;PMS_P2;Temp;Humidity;BMP_temperature;BMP_pressure;BME280_temperature;BME280_humidity;BME280_pressure;Samples;Min_cycle;Max_cycle;Signal;HPM_P1;HPM_P2
2022/11/04 00:01:47;;;;;;;3.65;1.52;;;;;;;11.05;97.01;98910.69;4966559;28;20047;-88
2022/11/04 00:04:16;;;;;;;1.30;1.05;;;;;;;11.06;96.98;98922.16;4950386;28;21117;-88
2022/11/04 00:06:44;;;;;;;3.17;1.25;;;;;;;11.06;96.75;98919.50;4934515;28;20042;-89
2022/11/04 00:09:14;;;;;;;3.50;1.50;;;;;;;11.06;96.46;98919.50;4963106;28;20054;-88
2022/11/04 00:14:28;;;;;;;3.05;1.58;;;;;;;11.04;96.71;98903.72;4952851;28;20551;-88
2022/11/04 00:33:24;;;;;;;1.38;0.98;;;;;;;11.03;96.03;98925.97;4935577;28;22505;-88
2022/11/04 00:33:47;;;;;;;2.20;1.20;;;;;;;11.05;95.96;98933.78;4970203;28;20038;-88
2022/11/04 00:36:15;;;;;;;2.38;1.00;;;;;;;11.05;95.68;98931.94;4966566;28;20069;-88
2022/11/04 00:38:41;;;;;;;4.10;1.25;;;;;;;11.05;95.60;98939.09;4966908;28;20449;-89
2022/11/04 00:41:24;;;;;;;1.70;1.20;;;;;;;11.05;95.29;98934.59;4966563;28;20051;-89
2022/11/04 00:44:03;;;;;;;2.38;1.67;;;;;;;11.01;95.17;98925.28;4992123;28;20082;-90
2022/11/04 00:46:31;;;;;;;2.05;1.30;;;;;;;11.06;95.32;98928.28;4919562;28;20106;-90
2022/11/04 00:48:58;;;;;;;1.70;1.10;;;;;;;11.07;95.28;98945.09;4925648;28;20094;-89
2022/11/04 00:51:25;;;;;;;1.80;1.10;;;;;;;11.08;95.22;98958.19;4899758;28;20047;-90
2022/11/04 00:53:51;;;;;;;2.58;1.30;;;;;;;11.08;94.81;98957.38;4916439;28;20051;-89
2022/11/04 00:56:18;;;;;;;2.95;1.50;;;;;;;11.03;95.13;98957.84;4904165;28;20166;-89
2022/11/04 00:58:45;;;;;;;3.63;1.30;;;;;;;11.04;94.70;98951.56;4895395;28;20047;-87
2022/11/04 01:01:17;;;;;;;2.95;1.25;;;;;;;11.06;94.82;98954.84;4929422;28;21702;-90
2022/11/04 01:03:48;;;;;;;2.13;1.23;;;;;;;11.07;94.85;98961.03;4923564;28;20050;-90
2022/11/04 01:06:15;;;;;;;1.45;1.02;;;;;;;11.07;94.75;98948.56;4911208;28;20110;-87
2022/11/04 01:08:42;;;;;;;2.63;1.30;;;;;;;11.08;94.72;98958.19;4907857;28;20071;-88
2022/11/04 01:11:09;;;;;;;6.55;1.35;;;;;;;11.09;94.45;98959.03;4941700;28;20048;-88
2022/11/04 01:13:37;;;;;;;1.55;1.40;;;;;;;11.10;94.38;98955.38;4921427;28;20054;-87
2022/11/04 01:16:06;;;;;;;1.40;1.30;;;;;;;11.13;94.43;98954.22;4930112;28;20043;-88
2022/11/04 01:18:33;;;;;;;2.10;1.33;;;;;;;11.11;94.16;98948.25;4946195;28;20038;-88
2022/11/04 01:21:04;;;;;;;3.28;1.50;;;;;;;11.10;94.07;98942.09;4966514;28;20077;-89
2022/11/04 01:23:33;;;;;;;1.45;1.20;;;;;;;11.13;93.96;98948.91;4999737;28;20589;-89
2022/11/04 01:26:00;;;;;;;1.73;1.63;;;;;;;11.13;94.14;98940.94;4998667;28;20117;-90
2022/11/04 01:28:26;;;;;;;2.25;1.40;;;;;;;11.12;94.14;98932.16;4967516;28;20047;-90
2022/11/04 01:30:53;;;;;;;4.22;1.45;;;;;;;11.13;94.03;98933.81;4952442;28;20042;-89
2022/11/04 01:33:20;;;;;;;1.67;1.10;;;;;;;11.14;93.91;98934.63;4976676;28;20047;-89
2022/11/04 01:35:46;;;;;;;1.58;1.20;;;;;;;11.10;93.63;98928.81;4968346;28;20052;-88
2022/11/04 01:38:13;;;;;;;3.55;1.20;;;;;;;11.12;93.81;98913.56;4966350;28;20046;-88
2022/11/04 01:40:40;;;;;;;1.10;1.00;;;;;;;11.14;93.55;98929.31;4969716;28;20074;-87
2022/11/04 01:43:18;;;;;;;4.32;1.35;;;;;;;11.08;93.39;98939.59;4981274;28;20104;-88
2022/11/04 01:45:55;;;;;;;2.67;1.23;;;;;;;11.07;93.54;98940.59;4961962;28;20050;-88
2022/11/04 01:48:29;;;;;;;5.57;1.30;;;;;;;11.08;93.32;98936.13;4973455;28;20043;-90
2022/11/04 01:50:56;;;;;;;1.83;1.13;;;;;;;11.12;93.41;98928.63;4969796;28;20502;-87
2022/11/04 01:53:30;;;;;;;1.52;1.40;;;;;;;11.07;92.81;98940.59;4959072;28;20520;-88
2022/11/04 01:55:59;;;;;;;3.33;1.70;;;;;;;11.10;93.17;98934.13;4996799;28;20047;-88
2022/11/04 01:58:29;;;;;;;2.22;1.38;;;;;;;11.11;93.08;98930.47;4965407;28;20047;-88
2022/11/04 02:00:56;;;;;;;2.53;1.10;;;;;;;11.10;92.95;98939.44;4994349;28;20047;-87
2022/11/04 02:03:30;;;;;;;1.80;1.20;;;;;;;11.07;92.54;98937.94;4976400;28;20097;-89
2022/11/04 02:05:57;;;;;;;2.33;1.13;;;;;;;11.10;92.81;98943.94;4962581;28;20134;-87
2022/11/04 02:08:24;;;;;;;1.23;0.90;;;;;;;11.10;92.70;98936.78;4944770;28;20499;-88
2022/11/04 02:10:59;;;;;;;2.28;1.30;;;;;;;11.08;92.47;98936.13;4931291;28;21170;-87
2022/11/04 02:13:26;;;;;;;1.65;1.30;;;;;;;11.11;92.58;98922.50;4911757;28;20379;-88
2022/11/04 02:15:59;;;;;;;3.38;1.30;;;;;;;11.08;92.09;98938.78;4948076;28;20063;-89
2022/11/04 02:18:57;;;;;;;2.47;1.33;;;;;;;11.05;92.32;98944.41;4966442;28;20050;-88
2022/11/04 02:21:55;;;;;;;1.60;1.20;;;;;;;11.00;91.94;98936.09;4900097;28;20077;-90
2022/11/04 02:24:53;;;;;;;2.45;1.40;;;;;;;10.99;91.88;98929.94;4927256;28;20049;-89
2022/11/04 02:27:47;;;;;;;2.38;1.30;;;;;;;11.01;91.88;98935.91;4931644;28;20070;-90
2022/11/04 02:30:17;;;;;;;;;;;;;;;10.91;92.02;98935.22;4931299;28;20066;-88
2022/11/04 02:33:22;;;;;;;4.32;1.50;;;;;;;10.99;91.98;98943.22;4966371;28;19951;-88
2022/11/04 02:36:13;;;;;;;3.90;1.92;;;;;;;10.98;91.88;98938.06;4911102;28;20042;-90
2022/11/04 02:38:42;;;;;;;3.97;1.83;;;;;;;11.06;92.14;98943.41;4968700;28;20062;-90
2022/11/04 02:41:25;;;;;;;3.80;1.42;;;;;;;11.02;92.04;98939.44;4969206;28;20054;-90
2022/11/04 02:44:04;;;;;;;2.63;1.17;;;;;;;10.99;92.08;98948.53;4970686;28;20094;-88
2022/11/04 02:46:56;;;;;;;3.00;1.23;;;;;;;11.01;92.35;98943.88;4980000;28;20042;-91
2022/11/04 02:49:37;;;;;;;2.78;1.50;;;;;;;11.01;92.30;98951.84;4921469;28;20061;-88
2022/11/04 02:52:07;;;;;;;1.30;1.10;;;;;;;11.01;92.45;98954.50;4934221;28;20046;-90
2022/11/04 02:54:37;;;;;;;1.10;1.00;;;;;;;11.02;92.29;98955.38;4932919;28;20098;-90
2022/11/04 02:57:06;;;;;;;3.05;1.30;;;;;;;11.02;92.18;98953.53;4972790;28;20043;-91
2022/11/04 02:59:37;;;;;;;2.85;1.25;;;;;;;11.01;92.11;98970.44;4954004;28;20514;-90
2022/11/04 03:02:07;;;;;;;3.88;1.30;;;;;;;11.01;91.82;98974.94;4960737;28;20046;-89
2022/11/04 03:04:39;;;;;;;2.33;1.48;;;;;;;11.01;91.60;98969.63;4952577;28;20355;-91
2022/11/04 03:07:10;;;;;;;5.47;1.75;;;;;;;11.01;91.84;98961.66;4959956;28;20513;-89
2022/11/04 03:09:38;;;;;;;2.42;1.40;;;;;;;11.02;91.82;98963.34;4985538;28;20054;-89
2022/11/04 03:12:10;;;;;;;3.25;1.25;;;;;;;10.97;91.45;98963.81;4986056;28;20051;-89
2022/11/04 03:14:41;;;;;;;3.15;1.30;;;;;;;10.97;91.61;98977.09;4983293;28;20047;-89
2022/11/04 03:17:18;;;;;;;5.43;1.38;;;;;;;10.93;91.37;98974.91;4969352;28;20045;-91
2022/11/04 03:19:53;;;;;;;5.50;2.13;;;;;;;10.93;90.87;98967.75;4997519;28;20092;-89
2022/11/04 03:22:22;;;;;;;3.30;1.40;;;;;;;10.99;91.31;98985.75;4969097;28;20410;-89
2022/11/04 03:24:49;;;;;;;2.15;1.20;;;;;;;11.00;90.97;98995.34;4976631;28;20108;-89
2022/11/04 03:27:39;;;;;;;3.50;1.60;;;;;;;10.93;90.09;99015.56;4975150;28;20058;-90
2022/11/04 03:30:17;;;;;;;3.67;1.20;;;;;;;10.97;90.62;99003.66;4925007;28;20046;-91
2022/11/04 03:33:23;;;;;;;4.63;1.63;;;;;;;10.92;90.03;99005.94;4952052;28;20053;-90
2022/11/04 03:35:49;;;;;;;4.88;1.40;;;;;;;10.99;90.42;99038.88;4948911;28;20038;-90
2022/11/04 03:38:16;;;;;;;4.38;1.30;;;;;;;10.99;90.77;99030.03;4968341;28;20046;-89
2022/11/04 03:40:43;;;;;;;2.95;1.35;;;;;;;10.98;90.73;99012.44;4978924;28;20104;-89
2022/11/04 03:43:24;;;;;;;5.80;1.05;;;;;;;10.97;90.90;99016.94;4975538;28;20128;-90
2022/11/04 03:45:51;;;;;;;4.45;1.13;;;;;;;10.98;90.48;99036.34;4986582;28;20054;-89
2022/11/04 03:48:18;;;;;;;3.85;1.35;;;;;;;10.96;90.55;99009.13;4985213;28;20046;-89
2022/11/04 03:50:46;;;;;;;3.35;1.25;;;;;;;10.97;90.14;99003.66;4981470;28;20409;-89
2022/11/04 03:53:17;;;;;;;3.33;1.35;;;;;;;10.98;90.30;99015.09;4973568;28;20124;-90
2022/11/04 03:56:12;;;;;;;3.88;1.20;;;;;;;10.91;89.74;99024.69;4984946;28;20402;-90
2022/11/04 03:58:47;;;;;;;2.22;1.00;;;;;;;10.95;90.07;99040.16;4957027;28;20418;-88
2022/11/04 04:01:43;;;;;;;2.38;1.23;;;;;;;10.84;89.74;99035.94;4969242;28;20108;-88
2022/11/04 04:04:32;;;;;;;2.78;1.10;;;;;;;10.84;89.73;99037.78;4921087;28;20101;-90
2022/11/04 04:07:07;;;;;;;2.90;1.80;;;;;;;10.89;89.94;99051.44;4933319;28;20047;-90
2022/11/04 04:09:40;;;;;;;4.40;1.40;;;;;;;10.89;89.65;99048.78;4960317;28;20038;-89
2022/11/04 04:12:13;;;;;;;3.55;1.30;;;;;;;10.82;89.55;99048.56;4948119;28;20054;-88
2022/11/04 04:14:43;;;;;;;6.13;1.60;;;;;;;10.86;90.28;99057.88;4942843;28;20482;-91
2022/11/04 04:17:18;;;;;;;4.90;1.30;;;;;;;10.77;90.26;99057.97;4969348;28;20101;-90
2022/11/04 04:20:06;;;;;;;5.20;1.40;;;;;;;10.64;90.57;99067.19;4983972;28;20045;-89
2022/11/04 04:22:41;;;;;;;5.38;1.38;;;;;;;10.72;90.43;99071.72;4951700;28;20073;-88
2022/11/04 04:27:56;;;;;;;1.40;1.25;;;;;;;10.69;91.49;99042.00;4984445;28;20413;-89
2022/11/04 04:30:23;;;;;;;3.83;1.25;;;;;;;10.62;92.04;99041.78;5005091;28;20111;-89
2022/11/04 04:32:53;;;;;;;3.00;1.60;;;;;;;10.58;91.84;99054.53;4951574;28;20058;-90
2022/11/04 04:35:43;;;;;;;2.95;0.90;;;;;;;10.57;92.09;99062.66;4973077;28;20061;-90
2022/11/04 04:46:47;;;;;;;4.85;1.33;;;;;;;10.46;92.41;99049.59;4903891;28;21430;-90
2022/11/04 04:49:14;;;;;;;7.38;1.17;;;;;;;10.48;92.50;99043.19;4909844;28;20238;-90
2022/11/04 04:51:44;;;;;;;3.40;1.23;;;;;;;10.44;92.33;99036.50;4944199;28;20042;-91
2022/11/04 04:54:11;;;;;;;3.67;1.13;;;;;;;10.48;92.58;99039.69;4913703;28;20049;-90
2022/11/04 04:56:37;;;;;;;3.30;1.10;;;;;;;10.44;92.33;99057.75;4912681;28;20039;-91
2022/11/04 04:59:04;;;;;;;3.47;1.27;;;;;;;10.43;92.24;99053.41;4929545;28;20419;-89
2022/11/04 05:01:31;;;;;;;3.65;1.15;;;;;;;10.38;92.43;99042.41;4912645;28;20043;-90
2022/11/04 05:03:58;;;;;;;2.67;1.20;;;;;;;10.36;92.57;99034.63;4897617;28;20055;-91
2022/11/04 05:06:25;;;;;;;3.63;1.20;;;;;;;10.34;92.19;99038.41;4916797;28;20475;-91
2022/11/04 05:08:52;;;;;;;3.70;1.08;;;;;;;10.33;92.44;99037.59;4930944;28;20046;-90
2022/11/04 05:11:19;;;;;;;2.92;1.23;;;;;;;10.31;92.29;99038.75;4967111;28;20051;-90
2022/11/04 05:13:53;;;;;;;7.50;1.70;;;;;;;10.29;92.24;99049.50;4969231;28;20096;-90
2022/11/04 05:16:20;;;;;;;4.90;1.63;;;;;;;10.26;92.17;99052.44;4955546;28;20478;-92
2022/11/04 05:18:46;;;;;;;5.65;1.50;;;;;;;10.28;91.83;99057.59;4976081;28;20038;-91
2022/11/04 05:21:14;;;;;;;2.85;1.40;;;;;;;10.23;91.98;99058.03;4969209;28;20057;-91
2022/11/04 05:23:41;;;;;;;7.53;1.45;;;;;;;10.24;91.94;99050.91;4949994;28;20085;-91
2022/11/04 05:26:08;;;;;;;5.88;1.40;;;;;;;10.26;92.09;99033.03;4971120;28;20046;-92
2022/11/04 05:28:34;;;;;;;6.55;1.30;;;;;;;10.23;91.56;99007.63;4965915;28;20452;-91
2022/11/04 05:31:03;;;;;;;4.10;1.35;;;;;;;10.27;91.52;99011.63;4970917;28;20069;-89
2022/11/04 05:33:30;;;;;;;3.88;1.02;;;;;;;10.25;92.33;99012.75;4932846;28;20136;-93
2022/11/04 05:36:14;;;;;;;3.20;1.30;;;;;;;10.14;92.51;99013.84;4948913;28;20077;-91
2022/11/04 05:38:42;;;;;;;5.70;1.30;;;;;;;10.24;92.50;99003.16;4948815;28;20904;-91
2022/11/04 05:41:10;;;;;;;6.03;1.30;;;;;;;10.22;92.50;99001.47;4966578;28;20054;-79
2022/11/04 05:43:36;;;;;;;3.78;1.45;;;;;;;10.22;92.80;98996.16;4965817;28;20066;-79
2022/11/04 05:46:03;;;;;;;3.05;1.05;;;;;;;10.21;92.98;99001.63;4981924;28;20104;-79
2022/11/04 05:48:30;;;;;;;1.42;1.10;;;;;;;10.21;93.00;98994.50;4982560;28;20045;-80
2022/11/04 05:51:03;;;;;;;5.00;1.15;;;;;;;10.21;93.14;99005.13;4969547;28;20050;-80
2022/11/04 05:53:30;;;;;;;4.65;1.30;;;;;;;10.21;92.58;99014.91;4970861;28;20050;-80
2022/11/04 05:55:56;;;;;;;3.67;1.08;;;;;;;10.19;92.62;99020.34;4983370;28;20093;-79
2022/11/04 05:58:23;;;;;;;2.20;0.88;;;;;;;10.19;92.60;99024.84;4965724;28;20068;-81
2022/11/04 06:00:49;;;;;;;5.32;1.10;;;;;;;10.21;92.45;99036.13;4946595;28;20051;-80
2022/11/04 06:03:16;;;;;;;6.13;1.15;;;;;;;10.21;92.33;99044.91;4964447;28;20125;-80
2022/11/04 06:05:43;;;;;;;5.85;1.30;;;;;;;10.22;92.16;99048.41;4982699;28;20087;-81
2022/11/04 06:08:09;;;;;;;2.15;1.30;;;;;;;10.24;92.29;99053.56;4986729;28;20042;-80
2022/11/04 06:10:37;;;;;;;5.50;1.27;;;;;;;10.21;92.47;99044.91;4981350;28;20050;-80
2022/11/04 06:13:03;;;;;;;3.95;1.33;;;;;;;10.22;92.33;99045.75;4988459;28;20050;-81
2022/11/04 06:15:30;;;;;;;4.80;1.25;;;;;;;10.24;92.48;99043.78;4975039;28;20165;-80
2022/11/04 06:17:57;;;;;;;4.63;1.30;;;;;;;10.24;92.63;99040.31;4987084;28;20209;-80
2022/11/04 06:20:23;;;;;;;4.05;1.00;;;;;;;10.24;93.02;99037.66;4985793;28;20054;-79
2022/11/04 06:22:50;;;;;;;3.17;1.17;;;;;;;10.25;93.06;99034.00;4972643;28;20045;-80
2022/11/04 06:25:17;;;;;;;5.07;2.22;;;;;;;10.24;92.71;99030.50;4967790;28;20121;-79
2022/11/04 06:27:43;;;;;;;10.35;2.80;;;;;;;10.27;92.20;99026.72;4984284;28;20068;-80
2022/11/04 06:30:11;;;;;;;5.30;2.60;;;;;;;10.26;92.72;99030.38;4989323;28;20108;-80
2022/11/04 06:32:38;;;;;;;5.22;2.90;;;;;;;10.24;93.08;99025.22;4986080;28;20403;-79
2022/11/04 06:35:07;;;;;;;6.10;2.20;;;;;;;10.25;93.22;99028.69;4987230;28;20043;-80
2022/11/04 06:37:34;;;;;;;7.07;1.80;;;;;;;10.23;93.51;99023.56;4977006;28;20585;-80
2022/11/04 06:40:00;;;;;;;4.18;2.15;;;;;;;10.20;93.70;99022.03;4984314;28;20641;-79
2022/11/04 06:42:27;;;;;;;2.70;1.55;;;;;;;10.23;93.61;99023.56;4967685;28;20046;-81
2022/11/04 06:44:54;;;;;;;4.55;1.92;;;;;;;10.24;93.80;99032.34;4982622;28;20058;-79
2022/11/04 06:47:21;;;;;;;7.10;2.05;;;;;;;10.24;93.71;99037.66;4981851;28;20130;-80
2022/11/04 06:49:50;;;;;;;11.20;1.98;;;;;;;10.23;93.96;99039.47;4988324;28;20056;-80
2022/11/04 06:52:17;;;;;;;5.88;1.88;;;;;;;10.23;93.78;99047.44;4999013;28;20097;-80
2022/11/04 06:54:43;;;;;;;1.95;1.50;;;;;;;10.25;93.54;99049.91;4984037;28;20473;-80
2022/11/04 06:57:11;;;;;;;2.63;1.30;;;;;;;10.24;93.55;99062.34;4969112;28;20046;-80
2022/11/04 06:59:38;;;;;;;5.18;1.92;;;;;;;10.25;93.18;99069.31;4983372;28;20050;-80
2022/11/04 07:02:04;;;;;;;4.18;2.20;;;;;;;10.26;93.32;99056.91;4987146;28;20932;-80
2022/11/04 07:04:31;;;;;;;10.57;2.70;;;;;;;10.23;93.25;99058.03;4993360;28;20452;-81
2022/11/04 07:06:58;;;;;;;4.22;2.50;;;;;;;10.22;93.05;99056.34;4990420;28;20046;-80
2022/11/04 07:09:25;;;;;;;6.18;2.17;;;;;;;10.24;92.91;99062.34;5001095;28;20066;-80
2022/11/04 07:11:51;;;;;;;6.15;1.50;;;;;;;10.23;93.33;99068.66;4983224;28;20062;-80
2022/11/04 07:14:18;;;;;;;5.95;1.50;;;;;;;10.24;93.22;99065.00;4967611;28;20109;-80
2022/11/04 07:16:44;;;;;;;4.90;1.20;;;;;;;10.27;93.22;99063.88;4969728;28;20130;-80
2022/11/04 07:19:11;;;;;;;2.22;1.02;;;;;;;10.26;93.20;99060.38;4988042;28;22626;-80
2022/11/04 07:21:38;;;;;;;6.82;1.73;;;;;;;10.25;93.17;99056.03;4970035;28;20081;-80
2022/11/04 07:24:06;;;;;;;6.45;1.55;;;;;;;10.23;93.31;99073.97;4983400;28;20399;-80
2022/11/04 07:26:32;;;;;;;3.78;1.88;;;;;;;10.28;92.85;99073.50;4984100;28;20099;-80
2022/11/04 07:28:59;;;;;;;6.90;2.05;;;;;;;10.26;92.71;99081.63;4970166;28;20578;-80
2022/11/04 07:31:27;;;;;;;10.02;3.22;;;;;;;10.30;92.32;99069.72;4984909;28;20046;-80
2022/11/04 07:33:53;;;;;;;12.52;2.35;;;;;;;10.29;92.41;99067.25;4969606;28;20066;-80
2022/11/04 07:36:20;;;;;;;6.75;2.60;;;;;;;10.30;92.30;99060.94;4968880;28;20449;-80
2022/11/04 07:38:47;;;;;;;5.30;2.40;;;;;;;10.32;92.41;99057.13;4972204;28;20140;-81
2022/11/04 07:41:14;;;;;;;5.85;2.75;;;;;;;10.35;92.26;99042.72;4989981;28;20463;-80
2022/11/04 07:43:41;;;;;;;5.18;1.88;;;;;;;10.35;92.74;99043.56;4967846;28;20047;-80
2022/11/04 07:46:10;;;;;;;5.35;1.65;;;;;;;10.32;92.59;99041.22;4951838;28;20042;-80
2022/11/04 07:48:37;;;;;;;2.00;1.23;;;;;;;10.36;93.02;99041.75;4952377;28;20567;-80
2022/11/04 07:51:06;;;;;;;2.28;1.10;;;;;;;10.38;92.60;99045.06;4954782;28;20069;-80
2022/11/04 07:53:33;;;;;;;4.97;1.70;;;;;;;10.37;92.68;99035.44;4987214;28;20402;-80
2022/11/04 07:56:05;;;;;;;6.00;1.35;;;;;;;10.33;93.04;99029.63;4992439;28;20042;-80
2022/11/04 07:58:32;;;;;;;6.05;1.60;;;;;;;10.34;92.90;99028.63;4984885;28;20042;-80
2022/11/04 08:01:00;;;;;;;7.85;1.55;;;;;;;10.40;92.57;99029.84;4957268;28;20046;-84
2022/11/04 08:03:27;;;;;;;3.83;1.20;;;;;;;10.40;92.43;99033.31;4983735;28;20046;-84
2022/11/04 08:05:55;;;;;;;2.33;1.45;;;;;;;10.41;92.15;99032.34;4982817;28;20038;-84
2022/11/04 08:08:23;;;;;;;3.65;1.88;;;;;;;10.42;91.68;99026.03;4995093;28;20057;-84
2022/11/04 08:10:59;;;;;;;5.38;1.65;;;;;;;10.39;91.17;99030.84;5007842;28;20482;-83
2022/11/04 08:13:27;;;;;;;2.58;1.85;;;;;;;10.45;91.19;99024.91;4982022;28;20046;-85
2022/11/04 08:15:54;;;;;;;5.40;2.90;;;;;;;10.46;91.25;99012.44;4985516;28;20054;-84
2022/11/04 08:18:21;;;;;;;5.93;3.03;;;;;;;10.44;91.78;99023.25;4967286;28;20471;-84
2022/11/04 08:20:49;;;;;;;6.53;2.22;;;;;;;10.46;91.93;99025.72;4972036;28;20494;-84
2022/11/04 08:23:16;;;;;;;8.25;2.60;;;;;;;10.47;91.66;99030.06;4990045;28;20588;-84
2022/11/04 08:25:43;;;;;;;10.18;2.75;;;;;;;10.49;91.78;99026.25;4979857;28;20054;-84
2022/11/04 08:28:16;;;;;;;4.45;2.58;;;;;;;10.52;91.67;99028.59;4985336;28;20556;-84
2022/11/04 08:30:52;;;;;;;8.77;2.65;;;;;;;10.49;90.94;99036.06;4969446;28;20039;-83
2022/11/04 08:33:19;;;;;;;6.57;2.78;;;;;;;10.57;91.07;99026.31;4964800;28;20178;-84
2022/11/04 08:35:45;;;;;;;5.93;2.42;;;;;;;10.58;90.76;99022.69;4964347;28;20434;-83
2022/11/04 08:38:12;;;;;;;6.63;2.55;;;;;;;10.59;90.51;99021.69;4961482;28;20105;-84
2022/11/04 08:40:39;;;;;;;6.07;3.10;;;;;;;10.65;90.48;99022.88;4984804;28;20466;-84
2022/11/04 08:43:07;;;;;;;4.38;2.67;;;;;;;10.63;90.42;99025.72;4986964;28;20054;-83
2022/11/04 08:45:41;;;;;;;5.50;2.05;;;;;;;10.65;89.79;99036.16;4992058;28;20486;-83
2022/11/04 08:48:08;;;;;;;7.13;2.30;;;;;;;10.71;90.02;99040.84;4983630;28;20046;-83
2022/11/04 08:50:35;;;;;;;9.20;2.30;;;;;;;10.73;90.47;99035.38;4967142;28;20648;-84
2022/11/04 08:53:03;;;;;;;5.60;1.80;;;;;;;10.76;90.11;99040.38;4990431;28;20106;-84
2022/11/04 08:55:30;;;;;;;4.65;1.60;;;;;;;10.80;89.89;99036.41;4964786;28;20057;-84
2022/11/04 08:57:58;;;;;;;8.23;2.10;;;;;;;10.83;89.92;99052.03;5001436;28;20387;-84
2022/11/04 09:00:25;;;;;;;7.25;2.05;;;;;;;10.88;89.95;99049.75;5004470;28;20127;-83
2022/11/04 09:02:54;;;;;;;5.32;2.20;;;;;;;10.92;89.93;99055.59;4987904;28;20041;-84
2022/11/04 09:05:21;;;;;;;5.35;2.33;;;;;;;10.94;89.54;99058.91;4971112;28;20138;-84
2022/11/04 09:07:47;;;;;;;6.45;2.38;;;;;;;10.97;89.63;99059.44;4935157;28;20166;-83
2022/11/04 09:10:17;;;;;;;5.57;2.13;;;;;;;11.01;89.49;99067.91;4968177;28;20066;-84
2022/11/04 09:12:44;;;;;;;6.63;2.47;;;;;;;11.03;89.68;99072.06;4992698;28;20148;-84
2022/11/04 09:15:11;;;;;;;3.67;2.10;;;;;;;11.04;89.68;99070.25;4978930;28;20061;-84
2022/11/04 09:17:38;;;;;;;6.25;2.38;;;;;;;11.07;89.30;99076.09;4963950;28;20108;-84
2022/11/04 09:20:05;;;;;;;6.72;2.13;;;;;;;11.10;89.02;99071.47;4977686;28;20074;-84
2022/11/04 09:22:32;;;;;;;5.32;2.15;;;;;;;11.13;89.09;99068.47;4991244;28;20517;-84
2022/11/04 09:24:59;;;;;;;7.05;2.50;;;;;;;11.15;89.15;99061.19;4990678;28;20054;-83
2022/11/04 09:27:25;;;;;;;3.85;2.20;;;;;;;11.17;89.09;99068.03;4984104;28;20494;-84
2022/11/04 09:29:52;;;;;;;5.40;2.55;;;;;;;11.20;88.71;99061.56;4999085;28;20072;-84
2022/11/04 09:32:19;;;;;;;7.45;2.58;;;;;;;11.23;88.64;99071.84;4981916;28;20486;-83
2022/11/04 09:34:45;;;;;;;4.93;2.22;;;;;;;11.25;88.27;99075.19;4987291;28;20418;-84
2022/11/04 09:37:12;;;;;;;6.50;2.30;;;;;;;11.28;88.17;99069.56;4997865;28;20054;-84
2022/11/04 09:39:39;;;;;;;3.70;2.38;;;;;;;11.29;88.32;99077.34;5001485;28;20126;-84
2022/11/04 09:42:18;;;;;;;8.77;3.35;;;;;;;11.34;88.21;99073.41;4952058;28;20070;-84
2022/11/04 09:44:52;;;;;;;3.83;2.10;;;;;;;11.34;88.09;99087.50;4969109;28;20050;-84
2022/11/04 09:47:42;;;;;;;3.47;1.95;;;;;;;11.38;88.24;99091.53;4976992;28;20120;-84
2022/11/04 09:50:13;;;;;;;6.15;2.03;;;;;;;11.42;88.05;99084.06;4990891;28;20560;-84
2022/11/04 09:52:50;;;;;;;7.50;2.17;;;;;;;11.38;87.42;99083.56;4980619;28;20476;-84
2022/11/04 09:55:22;;;;;;;4.93;2.33;;;;;;;11.43;87.69;99081.25;4976933;28;20438;-84
2022/11/04 09:57:57;;;;;;;5.47;3.22;;;;;;;11.44;87.53;99082.09;4968389;28;20097;-84
2022/11/04 10:00:24;;;;;;;6.43;2.13;;;;;;;11.49;87.81;99082.44;4957099;28;20051;-84
2022/11/04 10:02:56;;;;;;;6.75;2.20;;;;;;;11.49;87.50;99080.59;4967916;28;20079;-84
2022/11/04 10:05:48;;;;;;;5.75;2.38;;;;;;;11.49;87.31;99082.44;4977909;28;21560;-85
2022/11/04 10:08:23;;;;;;;6.88;2.65;;;;;;;11.52;87.59;99080.31;4952758;28;20104;-83
2022/11/04 10:11:04;;;;;;;5.93;2.90;;;;;;;11.54;87.55;99074.81;4978209;28;20046;-84
2022/11/04 10:13:52;;;;;;;7.22;2.90;;;;;;;11.55;87.68;99073.84;4999047;28;20567;-84
2022/11/04 10:16:33;;;;;;;5.88;2.60;;;;;;;11.57;87.55;99076.31;4949317;28;20050;-84
2022/11/04 10:19:05;;;;;;;4.63;2.40;;;;;;;11.57;87.30;99065.69;4984030;28;20127;-84
2022/11/04 10:21:58;;;;;;;5.50;2.55;;;;;;;11.57;87.14;99065.69;4964351;28;20110;-85
2022/11/04 10:24:57;;;;;;;7.13;2.30;;;;;;;11.60;87.45;99055.56;4899989;28;20080;-85
2022/11/04 10:27:27;;;;;;;9.52;2.90;;;;;;;11.63;87.17;99057.91;4914414;28;20049;-84
2022/11/04 10:30:15;;;;;;;7.63;3.30;;;;;;;11.63;87.18;99057.06;4989048;28;20506;-84
2022/11/04 10:33:08;;;;;;;7.45;3.03;;;;;;;11.59;86.45;99055.72;4956711;28;20058;-84
2022/11/04 10:35:44;;;;;;;6.88;2.75;;;;;;;11.63;86.87;99063.22;4974326;28;20038;-84
2022/11/04 10:38:17;;;;;;;6.20;2.90;;;;;;;11.67;86.92;99059.22;5011672;28;20042;-84
2022/11/04 10:40:49;;;;;;;4.22;2.60;;;;;;;11.71;87.04;99052.59;4968953;28;20129;-85
2022/11/04 10:43:34;;;;;;;5.50;3.25;;;;;;;11.68;86.54;99044.94;4985951;28;20047;-84
2022/11/04 10:46:19;;;;;;;7.63;3.08;;;;;;;11.72;86.47;99042.78;4982871;28;20043;-85
2022/11/04 10:49:19;;;;;;;6.80;2.88;;;;;;;11.68;86.64;99047.63;4987320;28;20186;-85
2022/11/04 10:51:46;;;;;;;5.72;2.97;;;;;;;11.75;87.31;99050.44;4937582;28;20094;-86
2022/11/04 10:54:13;;;;;;;8.77;2.92;;;;;;;11.79;87.15;99049.13;4952874;28;20054;-85
2022/11/04 10:56:51;;;;;;;11.95;3.35;;;;;;;11.82;86.94;99043.47;4952449;28;20063;-84
2022/11/04 10:59:23;;;;;;;6.55;2.75;;;;;;;11.83;87.03;99039.84;4977399;28;20457;-85
2022/11/04 11:01:54;;;;;;;8.93;2.97;;;;;;;11.84;86.69;99043.31;4984303;28;20101;-85
2022/11/04 11:04:30;;;;;;;6.53;2.72;;;;;;;11.85;86.43;99037.81;4984026;28;20062;-84
2022/11/04 11:06:58;;;;;;;7.72;2.85;;;;;;;11.88;86.63;99042.88;4976237;28;20133;-85
2022/11/04 11:09:31;;;;;;;5.63;2.80;;;;;;;11.85;86.40;99039.66;5000201;28;20045;-84
2022/11/04 11:12:05;;;;;;;4.00;2.40;;;;;;;11.82;86.36;99043.47;4979533;28;20077;-85
2022/11/04 11:14:52;;;;;;;4.55;2.50;;;;;;;11.84;86.40;99038.00;4969784;28;20113;-85
2022/11/04 11:17:24;;;;;;;5.95;2.60;;;;;;;11.83;86.50;99026.53;4975393;28;20065;-85
2022/11/04 11:19:55;;;;;;;4.28;2.05;;;;;;;11.85;86.27;99035.16;4968203;28;20070;-85
2022/11/04 11:22:42;;;;;;;5.20;2.03;;;;;;;11.80;85.56;99026.84;4966792;28;20546;-85
2022/11/04 11:25:28;;;;;;;5.18;2.47;;;;;;;11.82;85.41;99029.34;4972673;28;20038;-85
2022/11/04 11:27:56;;;;;;;11.85;2.90;;;;;;;11.90;85.69;99029.38;4953711;28;20945;-85
2022/11/04 11:30:33;;;;;;;13.27;2.88;;;;;;;11.90;85.40;99030.22;4966109;28;20474;-85
2022/11/04 11:33:03;;;;;;;10.80;3.03;;;;;;;11.91;85.57;99026.56;4954445;28;20101;-85
2022/11/04 11:35:32;;;;;;;7.22;2.40;;;;;;;11.91;85.56;99028.41;4979233;28;20489;-85
2022/11/04 11:38:02;;;;;;;3.80;1.10;;;;;;;11.90;84.99;99022.22;4954773;28;20054;-85
2022/11/04 11:40:34;;;;;;;5.22;1.20;;;;;;;11.91;85.06;99017.78;4985848;28;20501;-85
2022/11/04 11:43:01;;;;;;;12.27;2.25;;;;;;;11.92;85.47;99009.59;4979445;28;20105;-85
2022/11/04 11:45:29;;;;;;;19.05;3.33;;;;;;;11.92;85.69;99009.59;4980745;28;20105;-85
2022/11/04 11:47:56;;;;;;;15.20;1.60;;;;;;;11.93;85.68;99005.09;4995455;28;20194;-85
2022/11/04 11:50:29;;;;;;;6.85;1.52;;;;;;;11.95;84.83;99009.28;4984791;28;20047;-85
2022/11/04 11:53:12;;;;;;;5.15;1.45;;;;;;;11.88;84.20;99008.28;4941716;28;20042;-85
2022/11/04 11:55:43;;;;;;;2.80;1.02;;;;;;;11.97;84.54;99008.28;4934870;28;20054;-84
2022/11/04 11:58:33;;;;;;;5.20;0.80;;;;;;;11.88;82.60;99015.41;4969266;28;20038;-84
2022/11/04 12:01:37;;;;;;;4.30;1.05;;;;;;;11.89;82.90;99011.78;4950920;28;20042;-85
2022/11/04 12:04:04;;;;;;;1.63;1.30;;;;;;;11.93;83.34;99008.63;4981859;28;20062;-85
2022/11/04 12:06:51;;;;;;;4.30;1.40;;;;;;;11.92;83.34;99012.25;4972918;28;20058;-85
2022/11/04 12:09:59;;;;;;;1.52;1.02;;;;;;;11.85;82.48;99008.56;4981915;28;20125;-86
2022/11/04 12:12:34;;;;;;;3.22;1.20;;;;;;;11.90;82.20;98998.28;4974678;28;20046;-86
2022/11/04 12:15:16;;;;;;;1.13;0.88;;;;;;;11.93;82.08;99005.09;5003970;28;20121;-85
2022/11/04 12:18:01;;;;;;;4.65;1.33;;;;;;;11.86;80.86;98996.97;5011121;28;20101;-85
2022/11/04 12:20:57;;;;;;;5.22;1.20;;;;;;;11.84;80.61;98993.59;5000148;28;20076;-85
2022/11/04 12:23:53;;;;;;;2.30;1.00;;;;;;;11.86;80.49;98994.31;4919983;28;20102;-84
2022/11/04 12:26:39;;;;;;;1.77;1.00;;;;;;;11.88;80.43;99004.78;4975347;28;20078;-86